Weather at Schaffen Airfield

Public forecast

Using degrees Celsius for public forecast. Weather courtesy of forecast.io.

Current aviation weather report (METAR) for Schaffen Airfield

2024/07/23 02:55 (retrieved 33 minutes ago)

EBDT 230255Z AUTO 20006KT 9999 /// 18/16 Q1016 BLU

Closest aviation forecast (TAF) to Schaffen Airfield

Forecast is more than 6 hours old.

Closest forecast is Gilze Rijen Air Base, 34.2 nm (63.3 km) N.

2024/07/22 17:03 (retrieved 10 hours ago)

TAF TAF EHGR 221625Z 2217/2305 25009KT 9999 SCT035 BECMG 2301/2304 SCT015 BKN018 PROB30 TEMPO 2302/2305 4500 -RADZ FEW008 SCT010 BKN015